sensor_id;sensor_type;location;lat;lon;timestamp;temperature;humidity
35635;DHT22;21757;43.610;1.440;2023-04-24T00:00:09;12.10;1.00
35635;DHT22;21757;43.610;1.440;2023-04-24T00:02:36;12.10;1.00
35635;DHT22;21757;43.610;1.440;2023-04-24T00:05:05;12.00;1.00
35635;DHT22;21757;43.610;1.440;2023-04-24T00:07:31;12.00;1.00
35635;DHT22;21757;43.610;1.440;2023-04-24T00:09:57;12.00;1.00
35635;DHT22;21757;43.610;1.440;2023-04-24T00:12:24;11.80;1.00
35635;DHT22;21757;43.610;1.440;2023-04-24T00:14:50;11.60;1.00
35635;DHT22;21757;43.610;1.440;2023-04-24T00:17:15;11.50;1.00
35635;DHT22;21757;43.610;1.440;2023-04-24T00:19:41;11.50;1.00
35635;DHT22;21757;43.610;1.440;2023-04-24T00:22:07;11.80;1.00
35635;DHT22;21757;43.610;1.440;2023-04-24T00:24:33;12.00;1.00
35635;DHT22;21757;43.610;1.440;2023-04-24T00:26:58;12.20;1.00
35635;DHT22;21757;43.610;1.440;2023-04-24T00:29:26;12.10;1.00
35635;DHT22;21757;43.610;1.440;2023-04-24T00:31:54;11.90;1.00
35635;DHT22;21757;43.610;1.440;2023-04-24T00:34:20;11.70;1.00
35635;DHT22;21757;43.610;1.440;2023-04-24T00:36:48;11.60;1.00
35635;DHT22;21757;43.610;1.440;2023-04-24T00:39:18;11.50;1.00
35635;DHT22;21757;43.610;1.440;2023-04-24T00:41:44;11.40;1.00
35635;DHT22;21757;43.610;1.440;2023-04-24T00:44:11;11.40;1.00
35635;DHT22;21757;43.610;1.440;2023-04-24T00:46:37;11.30;1.00
35635;DHT22;21757;43.610;1.440;2023-04-24T00:49:03;11.20;1.00
35635;DHT22;21757;43.610;1.440;2023-04-24T00:51:30;11.10;99.90
35635;DHT22;21757;43.610;1.440;2023-04-24T00:53:56;11.20;99.90
35635;DHT22;21757;43.610;1.440;2023-04-24T00:56:22;11.20;99.90
35635;DHT22;21757;43.610;1.440;2023-04-24T00:58:49;11.10;99.90
35635;DHT22;21757;43.610;1.440;2023-04-24T01:01:15;11.10;99.90
35635;DHT22;21757;43.610;1.440;2023-04-24T01:03:41;11.00;99.90
35635;DHT22;21757;43.610;1.440;2023-04-24T01:06:06;11.00;99.90
35635;DHT22;21757;43.610;1.440;2023-04-24T01:08:33;11.00;99.90
35635;DHT22;21757;43.610;1.440;2023-04-24T01:11:02;11.00;99.90
35635;DHT22;21757;43.610;1.440;2023-04-24T01:13:29;11.10;99.90
35635;DHT22;21757;43.610;1.440;2023-04-24T01:15:55;11.10;99.90
35635;DHT22;21757;43.610;1.440;2023-04-24T01:18:20;11.10;99.90
35635;DHT22;21757;43.610;1.440;2023-04-24T01:20:46;11.10;99.90
35635;DHT22;21757;43.610;1.440;2023-04-24T01:23:13;11.10;99.90
35635;DHT22;21757;43.610;1.440;2023-04-24T01:25:40;11.10;99.90
35635;DHT22;21757;43.610;1.440;2023-04-24T01:28:06;11.20;99.90
35635;DHT22;21757;43.610;1.440;2023-04-24T01:30:32;11.20;99.90
35635;DHT22;21757;43.610;1.440;2023-04-24T01:32:58;11.30;99.90
35635;DHT22;21757;43.610;1.440;2023-04-24T01:35:24;11.40;99.90
35635;DHT22;21757;43.610;1.440;2023-04-24T01:37:50;11.40;99.90
35635;DHT22;21757;43.610;1.440;2023-04-24T01:40:16;11.30;99.90
35635;DHT22;21757;43.610;1.440;2023-04-24T01:42:42;11.30;99.90
35635;DHT22;21757;43.610;1.440;2023-04-24T01:45:11;11.50;99.90
35635;DHT22;21757;43.610;1.440;2023-04-24T01:47:37;11.70;99.90
35635;DHT22;21757;43.610;1.440;2023-04-24T01:50:03;11.80;99.90
35635;DHT22;21757;43.610;1.440;2023-04-24T01:52:29;11.90;99.90
35635;DHT22;21757;43.610;1.440;2023-04-24T01:54:59;11.90;99.90
35635;DHT22;21757;43.610;1.440;2023-04-24T01:57:25;11.90;99.90
35635;DHT22;21757;43.610;1.440;2023-04-24T01:59:51;11.90;99.90
35635;DHT22;21757;43.610;1.440;2023-04-24T02:02:17;11.80;99.90
35635;DHT22;21757;43.610;1.440;2023-04-24T02:04:42;11.80;99.90
35635;DHT22;21757;43.610;1.440;2023-04-24T02:07:08;11.80;99.90
35635;DHT22;21757;43.610;1.440;2023-04-24T02:09:34;11.80;99.90
35635;DHT22;21757;43.610;1.440;2023-04-24T02:11:59;11.90;99.90
35635;DHT22;21757;43.610;1.440;2023-04-24T02:14:26;11.80;99.90
35635;DHT22;21757;43.610;1.440;2023-04-24T02:16:51;11.70;99.90
35635;DHT22;21757;43.610;1.440;2023-04-24T02:19:18;11.70;99.90
35635;DHT22;21757;43.610;1.440;2023-04-24T02:21:44;11.60;99.90
35635;DHT22;21757;43.610;1.440;2023-04-24T02:24:10;11.50;99.90
35635;DHT22;21757;43.610;1.440;2023-04-24T02:26:36;11.40;99.90
35635;DHT22;21757;43.610;1.440;2023-04-24T02:29:01;11.30;99.90
35635;DHT22;21757;43.610;1.440;2023-04-24T02:31:27;11.20;99.90
35635;DHT22;21757;43.610;1.440;2023-04-24T02:33:53;11.20;99.90
35635;DHT22;21757;43.610;1.440;2023-04-24T02:36:18;11.20;99.90
35635;DHT22;21757;43.610;1.440;2023-04-24T02:38:44;11.20;99.90
35635;DHT22;21757;43.610;1.440;2023-04-24T02:41:10;11.40;99.90
35635;DHT22;21757;43.610;1.440;2023-04-24T02:43:36;11.60;99.90
35635;DHT22;21757;43.610;1.440;2023-04-24T02:46:02;11.80;99.90
35635;DHT22;21757;43.610;1.440;2023-04-24T02:48:28;11.80;99.90
35635;DHT22;21757;43.610;1.440;2023-04-24T02:50:54;11.90;99.90
35635;DHT22;21757;43.610;1.440;2023-04-24T02:53:20;12.00;99.90
35635;DHT22;21757;43.610;1.440;2023-04-24T02:55:45;12.00;99.90
35635;DHT22;21757;43.610;1.440;2023-04-24T02:58:11;12.10;99.90
35635;DHT22;21757;43.610;1.440;2023-04-24T03:00:38;12.10;99.90
35635;DHT22;21757;43.610;1.440;2023-04-24T03:03:05;12.10;99.90
35635;DHT22;21757;43.610;1.440;2023-04-24T03:05:30;12.10;99.90
35635;DHT22;21757;43.610;1.440;2023-04-24T03:07:56;12.20;99.90
35635;DHT22;21757;43.610;1.440;2023-04-24T03:10:22;12.20;99.90
35635;DHT22;21757;43.610;1.440;2023-04-24T03:12:48;12.20;99.90
35635;DHT22;21757;43.610;1.440;2023-04-24T03:15:14;12.20;99.90
35635;DHT22;21757;43.610;1.440;2023-04-24T03:17:40;12.20;99.90
35635;DHT22;21757;43.610;1.440;2023-04-24T03:20:06;12.20;99.90
35635;DHT22;21757;43.610;1.440;2023-04-24T03:22:33;12.20;99.90
35635;DHT22;21757;43.610;1.440;2023-04-24T03:25:00;12.20;99.90
35635;DHT22;21757;43.610;1.440;2023-04-24T03:27:25;12.20;99.90
35635;DHT22;21757;43.610;1.440;2023-04-24T03:29:51;12.20;99.90
35635;DHT22;21757;43.610;1.440;2023-04-24T03:32:21;12.10;99.90
35635;DHT22;21757;43.610;1.440;2023-04-24T03:34:50;12.00;99.90
35635;DHT22;21757;43.610;1.440;2023-04-24T03:37:16;11.70;99.90
35635;DHT22;21757;43.610;1.440;2023-04-24T03:39:42;11.60;99.90
35635;DHT22;21757;43.610;1.440;2023-04-24T03:42:08;11.50;99.90
35635;DHT22;21757;43.610;1.440;2023-04-24T03:44:34;11.40;99.90
35635;DHT22;21757;43.610;1.440;2023-04-24T03:47:00;11.30;99.90
35635;DHT22;21757;43.610;1.440;2023-04-24T03:49:26;11.30;99.90
35635;DHT22;21757;43.610;1.440;2023-04-24T03:51:51;11.40;99.90
35635;DHT22;21757;43.610;1.440;2023-04-24T03:54:18;11.50;99.90
35635;DHT22;21757;43.610;1.440;2023-04-24T03:56:44;11.70;99.90
35635;DHT22;21757;43.610;1.440;2023-04-24T03:59:10;11.80;99.90
35635;DHT22;21757;43.610;1.440;2023-04-24T04:01:36;11.80;99.90
35635;DHT22;21757;43.610;1.440;2023-04-24T04:04:03;11.80;99.90
35635;DHT22;21757;43.610;1.440;2023-04-24T04:06:29;11.80;99.90
35635;DHT22;21757;43.610;1.440;2023-04-24T04:08:56;11.80;99.90
35635;DHT22;21757;43.610;1.440;2023-04-24T04:11:23;11.80;99.90
35635;DHT22;21757;43.610;1.440;2023-04-24T04:13:48;11.80;99.90
35635;DHT22;21757;43.610;1.440;2023-04-24T04:16:14;11.80;99.90
35635;DHT22;21757;43.610;1.440;2023-04-24T04:18:42;11.80;99.90
35635;DHT22;21757;43.610;1.440;2023-04-24T04:21:08;11.80;99.90
35635;DHT22;21757;43.610;1.440;2023-04-24T04:23:34;11.80;99.90
35635;DHT22;21757;43.610;1.440;2023-04-24T04:25:59;11.70;99.90
35635;DHT22;21757;43.610;1.440;2023-04-24T04:28:25;11.60;99.90
35635;DHT22;21757;43.610;1.440;2023-04-24T04:30:51;11.60;99.90
35635;DHT22;21757;43.610;1.440;2023-04-24T04:33:21;11.50;99.90
35635;DHT22;21757;43.610;1.440;2023-04-24T04:35:47;11.40;99.90
35635;DHT22;21757;43.610;1.440;2023-04-24T04:38:22;11.40;99.90
35635;DHT22;21757;43.610;1.440;2023-04-24T04:40:48;11.30;99.90
35635;DHT22;21757;43.610;1.440;2023-04-24T04:43:14;11.20;99.90
35635;DHT22;21757;43.610;1.440;2023-04-24T04:45:41;11.20;99.90
35635;DHT22;21757;43.610;1.440;2023-04-24T04:48:09;11.20;99.90
35635;DHT22;21757;43.610;1.440;2023-04-24T04:50:35;11.30;99.90
35635;DHT22;21757;43.610;1.440;2023-04-24T04:53:01;11.40;99.90
35635;DHT22;21757;43.610;1.440;2023-04-24T04:55:27;11.50;99.90
35635;DHT22;21757;43.610;1.440;2023-04-24T04:57:52;11.50;99.90
35635;DHT22;21757;43.610;1.440;2023-04-24T05:00:18;11.60;99.90
35635;DHT22;21757;43.610;1.440;2023-04-24T05:02:44;11.60;99.90
35635;DHT22;21757;43.610;1.440;2023-04-24T05:05:10;11.80;99.90
35635;DHT22;21757;43.610;1.440;2023-04-24T05:07:36;11.80;99.90
35635;DHT22;21757;43.610;1.440;2023-04-24T05:10:02;11.90;99.90
35635;DHT22;21757;43.610;1.440;2023-04-24T05:12:28;11.90;99.90
35635;DHT22;21757;43.610;1.440;2023-04-24T05:14:53;11.90;99.90
35635;DHT22;21757;43.610;1.440;2023-04-24T05:17:19;12.00;99.90
35635;DHT22;21757;43.610;1.440;2023-04-24T05:19:45;12.00;99.90
35635;DHT22;21757;43.610;1.440;2023-04-24T05:22:11;12.10;99.90
35635;DHT22;21757;43.610;1.440;2023-04-24T05:24:38;12.10;99.90
35635;DHT22;21757;43.610;1.440;2023-04-24T05:27:04;12.10;99.90
35635;DHT22;21757;43.610;1.440;2023-04-24T05:29:32;12.10;99.90
35635;DHT22;21757;43.610;1.440;2023-04-24T05:31:59;12.20;99.90
35635;DHT22;21757;43.610;1.440;2023-04-24T05:34:25;12.30;99.90
35635;DHT22;21757;43.610;1.440;2023-04-24T05:36:51;12.30;99.90
35635;DHT22;21757;43.610;1.440;2023-04-24T05:39:17;12.40;1.00
35635;DHT22;21757;43.610;1.440;2023-04-24T05:41:44;12.40;1.00
35635;DHT22;21757;43.610;1.440;2023-04-24T05:44:10;12.40;1.00
35635;DHT22;21757;43.610;1.440;2023-04-24T05:46:36;12.50;1.00
35635;DHT22;21757;43.610;1.440;2023-04-24T05:49:02;12.50;99.90
35635;DHT22;21757;43.610;1.440;2023-04-24T05:51:28;12.50;99.90
35635;DHT22;21757;43.610;1.440;2023-04-24T05:53:54;12.50;99.90
35635;DHT22;21757;43.610;1.440;2023-04-24T05:56:20;12.60;99.90
35635;DHT22;21757;43.610;1.440;2023-04-24T05:58:46;12.80;99.90
35635;DHT22;21757;43.610;1.440;2023-04-24T06:01:12;13.00;99.90
35635;DHT22;21757;43.610;1.440;2023-04-24T06:03:41;13.10;99.90
35635;DHT22;21757;43.610;1.440;2023-04-24T06:06:07;13.00;99.90
35635;DHT22;21757;43.610;1.440;2023-04-24T06:08:33;13.00;99.90
35635;DHT22;21757;43.610;1.440;2023-04-24T06:10:59;13.00;99.90
35635;DHT22;21757;43.610;1.440;2023-04-24T06:13:25;12.90;99.90
35635;DHT22;21757;43.610;1.440;2023-04-24T06:15:51;12.90;99.90
35635;DHT22;21757;43.610;1.440;2023-04-24T06:18:16;12.90;99.90
35635;DHT22;21757;43.610;1.440;2023-04-24T06:20:43;13.10;1.00
35635;DHT22;21757;43.610;1.440;2023-04-24T06:23:08;13.20;99.90
35635;DHT22;21757;43.610;1.440;2023-04-24T06:25:34;13.20;1.00
35635;DHT22;21757;43.610;1.440;2023-04-24T06:28:00;13.20;99.90
35635;DHT22;21757;43.610;1.440;2023-04-24T06:30:27;13.00;99.90
35635;DHT22;21757;43.610;1.440;2023-04-24T06:32:53;13.00;99.90
35635;DHT22;21757;43.610;1.440;2023-04-24T06:35:19;13.00;99.90
35635;DHT22;21757;43.610;1.440;2023-04-24T06:37:45;13.10;99.90
35635;DHT22;21757;43.610;1.440;2023-04-24T06:40:11;13.10;99.90
35635;DHT22;21757;43.610;1.440;2023-04-24T06:42:37;13.10;99.90
35635;DHT22;21757;43.610;1.440;2023-04-24T06:45:02;13.30;99.90
35635;DHT22;21757;43.610;1.440;2023-04-24T06:47:29;13.30;99.90
35635;DHT22;21757;43.610;1.440;2023-04-24T06:49:54;13.30;99.90
35635;DHT22;21757;43.610;1.440;2023-04-24T06:52:21;13.40;99.90
35635;DHT22;21757;43.610;1.440;2023-04-24T06:54:46;13.40;99.90
35635;DHT22;21757;43.610;1.440;2023-04-24T06:57:12;13.40;99.90
35635;DHT22;21757;43.610;1.440;2023-04-24T06:59:38;13.40;99.90
35635;DHT22;21757;43.610;1.440;2023-04-24T07:02:04;13.30;99.90
35635;DHT22;21757;43.610;1.440;2023-04-24T07:04:30;13.30;99.90
35635;DHT22;21757;43.610;1.440;2023-04-24T07:06:56;13.40;1.00
35635;DHT22;21757;43.610;1.440;2023-04-24T07:09:24;13.40;1.00
35635;DHT22;21757;43.610;1.440;2023-04-24T07:11:54;13.50;99.90
35635;DHT22;21757;43.610;1.440;2023-04-24T07:14:22;13.50;99.90
35635;DHT22;21757;43.610;1.440;2023-04-24T07:16:48;13.50;99.90
35635;DHT22;21757;43.610;1.440;2023-04-24T07:19:14;13.50;99.90
35635;DHT22;21757;43.610;1.440;2023-04-24T07:21:40;13.50;99.90
35635;DHT22;21757;43.610;1.440;2023-04-24T07:24:06;13.20;99.90
35635;DHT22;21757;43.610;1.440;2023-04-24T07:26:36;12.90;1.00
35635;DHT22;21757;43.610;1.440;2023-04-24T07:29:02;12.70;1.00
35635;DHT22;21757;43.610;1.440;2023-04-24T07:31:28;12.70;99.90
35635;DHT22;21757;43.610;1.440;2023-04-24T07:33:54;12.80;99.90
35635;DHT22;21757;43.610;1.440;2023-04-24T07:36:23;13.20;99.90
35635;DHT22;21757;43.610;1.440;2023-04-24T07:38:49;13.20;99.90
35635;DHT22;21757;43.610;1.440;2023-04-24T07:41:15;13.70;99.90
35635;DHT22;21757;43.610;1.440;2023-04-24T07:43:41;13.90;99.90
35635;DHT22;21757;43.610;1.440;2023-04-24T07:46:08;13.90;99.90
35635;DHT22;21757;43.610;1.440;2023-04-24T07:48:34;13.80;99.90
35635;DHT22;21757;43.610;1.440;2023-04-24T07:51:00;13.70;1.00
35635;DHT22;21757;43.610;1.440;2023-04-24T07:53:26;13.70;1.00
35635;DHT22;21757;43.610;1.440;2023-04-24T07:55:51;13.70;1.00
35635;DHT22;21757;43.610;1.440;2023-04-24T07:58:17;13.90;1.00
35635;DHT22;21757;43.610;1.440;2023-04-24T08:00:43;14.50;1.00
35635;DHT22;21757;43.610;1.440;2023-04-24T08:03:09;14.90;1.00
35635;DHT22;21757;43.610;1.440;2023-04-24T08:05:34;15.00;1.00
35635;DHT22;21757;43.610;1.440;2023-04-24T08:08:00;14.60;1.00
35635;DHT22;21757;43.610;1.440;2023-04-24T08:10:26;14.80;99.90
35635;DHT22;21757;43.610;1.440;2023-04-24T08:12:52;15.00;99.90
35635;DHT22;21757;43.610;1.440;2023-04-24T08:15:18;14.80;99.90
35635;DHT22;21757;43.610;1.440;2023-04-24T08:17:43;14.70;99.90
35635;DHT22;21757;43.610;1.440;2023-04-24T08:20:10;14.80;99.90
35635;DHT22;21757;43.610;1.440;2023-04-24T08:22:42;14.80;99.90
35635;DHT22;21757;43.610;1.440;2023-04-24T08:25:09;14.70;99.90
35635;DHT22;21757;43.610;1.440;2023-04-24T08:27:36;15.40;99.90
35635;DHT22;21757;43.610;1.440;2023-04-24T08:30:03;15.70;99.90
35635;DHT22;21757;43.610;1.440;2023-04-24T08:32:29;16.00;99.90
35635;DHT22;21757;43.610;1.440;2023-04-24T08:34:56;15.90;99.90
35635;DHT22;21757;43.610;1.440;2023-04-24T08:37:22;15.90;99.90
35635;DHT22;21757;43.610;1.440;2023-04-24T08:39:49;15.70;99.90
35635;DHT22;21757;43.610;1.440;2023-04-24T08:42:17;15.90;99.90
35635;DHT22;21757;43.610;1.440;2023-04-24T08:44:43;15.80;99.90
35635;DHT22;21757;43.610;1.440;2023-04-24T08:47:10;15.60;99.90
35635;DHT22;21757;43.610;1.440;2023-04-24T08:49:37;15.40;99.90
35635;DHT22;21757;43.610;1.440;2023-04-24T08:52:04;15.20;99.90
35635;DHT22;21757;43.610;1.440;2023-04-24T08:54:31;15.40;1.00
35635;DHT22;21757;43.610;1.440;2023-04-24T08:57:01;15.60;1.00
35635;DHT22;21757;43.610;1.440;2023-04-24T08:59:27;15.70;1.00
35635;DHT22;21757;43.610;1.440;2023-04-24T09:01:55;15.90;1.00
35635;DHT22;21757;43.610;1.440;2023-04-24T09:04:22;16.20;1.00
35635;DHT22;21757;43.610;1.440;2023-04-24T09:06:56;16.60;99.90
35635;DHT22;21757;43.610;1.440;2023-04-24T09:09:23;16.80;99.90
35635;DHT22;21757;43.610;1.440;2023-04-24T09:11:52;16.50;99.90
35635;DHT22;21757;43.610;1.440;2023-04-24T09:14:21;15.80;1.00
35635;DHT22;21757;43.610;1.440;2023-04-24T09:16:48;15.60;1.00
35635;DHT22;21757;43.610;1.440;2023-04-24T09:19:14;15.90;1.00
35635;DHT22;21757;43.610;1.440;2023-04-24T09:21:49;16.00;1.00
35635;DHT22;21757;43.610;1.440;2023-04-24T09:24:20;15.90;1.00
35635;DHT22;21757;43.610;1.440;2023-04-24T09:26:49;15.60;1.00
35635;DHT22;21757;43.610;1.440;2023-04-24T09:29:18;15.50;1.00
35635;DHT22;21757;43.610;1.440;2023-04-24T09:31:45;15.90;1.00
35635;DHT22;21757;43.610;1.440;2023-04-24T09:34:11;15.90;99.90
35635;DHT22;21757;43.610;1.440;2023-04-24T09:36:39;15.70;1.00
35635;DHT22;21757;43.610;1.440;2023-04-24T09:39:08;16.00;99.90
35635;DHT22;21757;43.610;1.440;2023-04-24T09:41:35;16.70;1.00
35635;DHT22;21757;43.610;1.440;2023-04-24T09:44:16;17.10;1.00
35635;DHT22;21757;43.610;1.440;2023-04-24T09:46:42;16.80;99.90
35635;DHT22;21757;43.610;1.440;2023-04-24T09:49:11;16.80;99.90
35635;DHT22;21757;43.610;1.440;2023-04-24T09:51:38;16.80;99.90
35635;DHT22;21757;43.610;1.440;2023-04-24T09:54:10;16.70;1.00
35635;DHT22;21757;43.610;1.440;2023-04-24T09:56:42;17.20;1.00
35635;DHT22;21757;43.610;1.440;2023-04-24T09:59:08;17.00;1.00
35635;DHT22;21757;43.610;1.440;2023-04-24T10:01:34;16.90;1.00
35635;DHT22;21757;43.610;1.440;2023-04-24T10:04:00;17.30;99.90
35635;DHT22;21757;43.610;1.440;2023-04-24T10:06:34;17.20;99.90
35635;DHT22;21757;43.610;1.440;2023-04-24T10:09:00;16.90;1.00
35635;DHT22;21757;43.610;1.440;2023-04-24T10:11:30;16.60;1.00
35635;DHT22;21757;43.610;1.440;2023-04-24T10:13:56;17.10;1.00
35635;DHT22;21757;43.610;1.440;2023-04-24T10:16:23;17.20;99.90
35635;DHT22;21757;43.610;1.440;2023-04-24T10:18:49;17.20;99.90
35635;DHT22;21757;43.610;1.440;2023-04-24T10:21:19;17.30;99.90
35635;DHT22;21757;43.610;1.440;2023-04-24T10:23:45;17.70;99.90
35635;DHT22;21757;43.610;1.440;2023-04-24T10:26:16;17.50;99.90
35635;DHT22;21757;43.610;1.440;2023-04-24T10:28:47;17.60;99.90
35635;DHT22;21757;43.610;1.440;2023-04-24T10:31:16;18.20;99.90
35635;DHT22;21757;43.610;1.440;2023-04-24T10:33:43;18.20;99.90
35635;DHT22;21757;43.610;1.440;2023-04-24T10:36:13;18.30;99.90
35635;DHT22;21757;43.610;1.440;2023-04-24T10:38:40;18.50;99.90
35635;DHT22;21757;43.610;1.440;2023-04-24T10:41:11;18.60;99.90
35635;DHT22;21757;43.610;1.440;2023-04-24T10:43:42;18.70;99.90
35635;DHT22;21757;43.610;1.440;2023-04-24T10:46:08;18.70;99.90
35635;DHT22;21757;43.610;1.440;2023-04-24T10:48:36;19.20;99.90
35635;DHT22;21757;43.610;1.440;2023-04-24T10:51:11;18.70;99.90
35635;DHT22;21757;43.610;1.440;2023-04-24T10:53:38;17.80;99.90
35635;DHT22;21757;43.610;1.440;2023-04-24T10:56:08;17.80;1.00
35635;DHT22;21757;43.610;1.440;2023-04-24T10:58:49;17.30;1.00
35635;DHT22;21757;43.610;1.440;2023-04-24T11:01:31;17.40;99.90
35635;DHT22;21757;43.610;1.440;2023-04-24T11:04:02;18.10;1.00
35635;DHT22;21757;43.610;1.440;2023-04-24T11:06:36;17.60;1.00
35635;DHT22;21757;43.610;1.440;2023-04-24T11:09:08;17.40;99.90
35635;DHT22;21757;43.610;1.440;2023-04-24T11:11:38;17.40;99.90
35635;DHT22;21757;43.610;1.440;2023-04-24T11:14:09;17.60;99.90
35635;DHT22;21757;43.610;1.440;2023-04-24T11:16:43;17.60;99.90
35635;DHT22;21757;43.610;1.440;2023-04-24T11:24:27;17.30;99.90
35635;DHT22;21757;43.610;1.440;2023-04-24T11:27:00;17.50;99.90
35635;DHT22;21757;43.610;1.440;2023-04-24T11:32:15;17.30;1.00
35635;DHT22;21757;43.610;1.440;2023-04-24T11:34:58;17.30;1.00
35635;DHT22;21757;43.610;1.440;2023-04-24T11:37:39;17.30;99.90
35635;DHT22;21757;43.610;1.440;2023-04-24T11:40:08;18.00;99.90
35635;DHT22;21757;43.610;1.440;2023-04-24T11:42:38;18.50;99.90
35635;DHT22;21757;43.610;1.440;2023-04-24T11:45:27;18.40;99.90
35635;DHT22;21757;43.610;1.440;2023-04-24T11:47:53;18.10;99.90
35635;DHT22;21757;43.610;1.440;2023-04-24T11:50:22;18.00;99.90
35635;DHT22;21757;43.610;1.440;2023-04-24T11:52:49;18.30;99.90
35635;DHT22;21757;43.610;1.440;2023-04-24T11:57:46;18.20;99.90
35635;DHT22;21757;43.610;1.440;2023-04-24T12:00:23;18.60;99.90
35635;DHT22;21757;43.610;1.440;2023-04-24T12:02:50;18.90;1.00
35635;DHT22;21757;43.610;1.440;2023-04-24T12:05:25;18.60;1.00
35635;DHT22;21757;43.610;1.440;2023-04-24T12:07:51;18.80;99.90
35635;DHT22;21757;43.610;1.440;2023-04-24T12:10:21;19.20;99.90
35635;DHT22;21757;43.610;1.440;2023-04-24T12:12:48;19.50;99.90
35635;DHT22;21757;43.610;1.440;2023-04-24T12:15:16;19.50;99.90
35635;DHT22;21757;43.610;1.440;2023-04-24T12:17:42;19.10;99.90
35635;DHT22;21757;43.610;1.440;2023-04-24T12:20:09;18.90;99.90
35635;DHT22;21757;43.610;1.440;2023-04-24T12:25:17;17.90;99.90
35635;DHT22;21757;43.610;1.440;2023-04-24T12:27:46;17.80;99.90
35635;DHT22;21757;43.610;1.440;2023-04-24T12:30:17;18.40;99.90
35635;DHT22;21757;43.610;1.440;2023-04-24T12:32:45;18.70;99.90
35635;DHT22;21757;43.610;1.440;2023-04-24T12:35:11;18.60;1.00
35635;DHT22;21757;43.610;1.440;2023-04-24T12:37:37;18.90;99.90
35635;DHT22;21757;43.610;1.440;2023-04-24T12:40:11;19.00;99.90
35635;DHT22;21757;43.610;1.440;2023-04-24T12:42:45;19.10;99.90
35635;DHT22;21757;43.610;1.440;2023-04-24T12:45:12;19.10;99.90
35635;DHT22;21757;43.610;1.440;2023-04-24T12:47:39;19.10;99.90
35635;DHT22;21757;43.610;1.440;2023-04-24T12:50:13;18.30;99.90
35635;DHT22;21757;43.610;1.440;2023-04-24T12:52:40;18.80;1.00
35635;DHT22;21757;43.610;1.440;2023-04-24T12:55:06;18.70;1.00
35635;DHT22;21757;43.610;1.440;2023-04-24T12:57:37;19.10;99.90
35635;DHT22;21757;43.610;1.440;2023-04-24T13:00:03;19.40;99.90
35635;DHT22;21757;43.610;1.440;2023-04-24T13:02:31;19.60;99.90
35635;DHT22;21757;43.610;1.440;2023-04-24T13:04:58;19.80;99.90
35635;DHT22;21757;43.610;1.440;2023-04-24T13:07:24;19.10;99.90
35635;DHT22;21757;43.610;1.440;2023-04-24T13:09:51;19.20;99.90
35635;DHT22;21757;43.610;1.440;2023-04-24T13:12:17;19.10;99.90
35635;DHT22;21757;43.610;1.440;2023-04-24T13:14:44;19.10;99.90
35635;DHT22;21757;43.610;1.440;2023-04-24T13:17:10;19.00;99.90
35635;DHT22;21757;43.610;1.440;2023-04-24T13:19:38;18.60;99.90
35635;DHT22;21757;43.610;1.440;2023-04-24T13:22:05;19.00;99.90
35635;DHT22;21757;43.610;1.440;2023-04-24T13:24:32;18.90;99.90
35635;DHT22;21757;43.610;1.440;2023-04-24T13:26:58;19.10;99.90
35635;DHT22;21757;43.610;1.440;2023-04-24T13:29:24;18.70;99.90
35635;DHT22;21757;43.610;1.440;2023-04-24T13:31:51;19.40;99.90
35635;DHT22;21757;43.610;1.440;2023-04-24T13:34:17;19.60;99.90
35635;DHT22;21757;43.610;1.440;2023-04-24T13:36:43;20.00;99.90
35635;DHT22;21757;43.610;1.440;2023-04-24T13:39:09;19.80;99.90
35635;DHT22;21757;43.610;1.440;2023-04-24T13:41:35;19.60;99.90
35635;DHT22;21757;43.610;1.440;2023-04-24T13:44:02;20.00;99.90
35635;DHT22;21757;43.610;1.440;2023-04-24T13:46:28;20.70;99.90
35635;DHT22;21757;43.610;1.440;2023-04-24T13:48:53;20.10;99.90
35635;DHT22;21757;43.610;1.440;2023-04-24T13:51:19;19.30;99.90
35635;DHT22;21757;43.610;1.440;2023-04-24T13:53:45;18.90;99.90
35635;DHT22;21757;43.610;1.440;2023-04-24T13:56:11;19.40;99.90
35635;DHT22;21757;43.610;1.440;2023-04-24T13:58:38;19.20;99.90
35635;DHT22;21757;43.610;1.440;2023-04-24T14:01:04;19.20;99.90
35635;DHT22;21757;43.610;1.440;2023-04-24T14:03:30;19.50;99.90
35635;DHT22;21757;43.610;1.440;2023-04-24T14:05:56;19.50;99.90
35635;DHT22;21757;43.610;1.440;2023-04-24T14:08:22;20.10;99.90
35635;DHT22;21757;43.610;1.440;2023-04-24T14:10:47;20.10;99.90
35635;DHT22;21757;43.610;1.440;2023-04-24T14:13:13;20.00;99.90
35635;DHT22;21757;43.610;1.440;2023-04-24T14:15:39;20.20;99.90
35635;DHT22;21757;43.610;1.440;2023-04-24T14:18:05;20.40;99.90
35635;DHT22;21757;43.610;1.440;2023-04-24T14:20:31;20.40;99.90
35635;DHT22;21757;43.610;1.440;2023-04-24T14:22:57;20.60;99.90
35635;DHT22;21757;43.610;1.440;2023-04-24T14:25:26;20.70;99.90
35635;DHT22;21757;43.610;1.440;2023-04-24T14:27:51;20.30;99.90
35635;DHT22;21757;43.610;1.440;2023-04-24T14:30:18;20.70;99.90
35635;DHT22;21757;43.610;1.440;2023-04-24T14:32:44;20.20;99.90
35635;DHT22;21757;43.610;1.440;2023-04-24T14:35:10;20.60;99.90
35635;DHT22;21757;43.610;1.440;2023-04-24T14:37:36;20.70;99.90
35635;DHT22;21757;43.610;1.440;2023-04-24T14:40:03;20.00;99.90
35635;DHT22;21757;43.610;1.440;2023-04-24T14:42:30;20.20;99.90
35635;DHT22;21757;43.610;1.440;2023-04-24T14:44:55;19.70;99.90
35635;DHT22;21757;43.610;1.440;2023-04-24T14:47:21;19.60;99.90
35635;DHT22;21757;43.610;1.440;2023-04-24T14:49:48;19.90;99.90
35635;DHT22;21757;43.610;1.440;2023-04-24T14:52:14;19.30;99.90
35635;DHT22;21757;43.610;1.440;2023-04-24T14:54:39;19.50;99.90
35635;DHT22;21757;43.610;1.440;2023-04-24T14:57:05;19.40;99.90
35635;DHT22;21757;43.610;1.440;2023-04-24T14:59:31;19.70;99.90
35635;DHT22;21757;43.610;1.440;2023-04-24T15:01:57;19.70;99.90
35635;DHT22;21757;43.610;1.440;2023-04-24T15:04:27;19.50;99.90
35635;DHT22;21757;43.610;1.440;2023-04-24T15:06:54;19.40;99.90
35635;DHT22;21757;43.610;1.440;2023-04-24T15:09:24;19.40;99.90
35635;DHT22;21757;43.610;1.440;2023-04-24T15:11:51;19.60;99.90
35635;DHT22;21757;43.610;1.440;2023-04-24T15:14:17;20.00;99.90
35635;DHT22;21757;43.610;1.440;2023-04-24T15:16:44;19.90;99.90
35635;DHT22;21757;43.610;1.440;2023-04-24T15:19:10;19.40;99.90
35635;DHT22;21757;43.610;1.440;2023-04-24T15:21:36;19.30;99.90
35635;DHT22;21757;43.610;1.440;2023-04-24T15:24:03;19.40;99.90
35635;DHT22;21757;43.610;1.440;2023-04-24T15:26:29;20.00;99.90
35635;DHT22;21757;43.610;1.440;2023-04-24T15:28:55;20.10;99.90
35635;DHT22;21757;43.610;1.440;2023-04-24T15:31:20;20.00;99.90
35635;DHT22;21757;43.610;1.440;2023-04-24T15:33:49;20.60;99.90
35635;DHT22;21757;43.610;1.440;2023-04-24T15:36:15;20.90;99.90
35635;DHT22;21757;43.610;1.440;2023-04-24T15:38:43;21.10;99.90
35635;DHT22;21757;43.610;1.440;2023-04-24T15:41:09;21.00;99.90
35635;DHT22;21757;43.610;1.440;2023-04-24T15:43:35;20.60;99.90
35635;DHT22;21757;43.610;1.440;2023-04-24T15:46:01;20.50;99.90